Time;durP1;ratioP1;P1;durP2;ratioP2;P2;SDS_P1;SDS_P2;PMS_P1;PMS_P2;Temp;Humidity;BMP_temperature;BMP_pressure;BME280_temperature;BME280_humidity;BME280_pressure;Samples;Min_cycle;Max_cycle;Signal;HPM_P1;HPM_P2
2022/06/17 00:01:44;;;;;;;1.30;0.80;;;;;;;11.92;69.49;100364.84;5001958;28;20033;-90
2022/06/17 00:04:10;;;;;;;2.40;0.70;;;;;;;11.92;69.22;100364.84;5029115;28;20037;-85
2022/06/17 00:06:51;;;;;;;1.95;0.60;;;;;;;11.90;69.63;100367.06;5021168;28;20436;-85
2022/06/17 00:09:18;;;;;;;0.43;0.43;;;;;;;11.81;69.28;100368.84;5032646;28;20571;-84
2022/06/17 00:11:44;;;;;;;1.45;0.60;;;;;;;11.79;69.46;100366.38;5016104;28;20073;-86
2022/06/17 00:14:13;;;;;;;0.50;0.50;;;;;;;11.73;68.94;100368.34;5026762;28;20124;-86
2022/06/17 00:16:39;;;;;;;0.40;0.40;;;;;;;11.76;68.82;100372.44;5013081;28;20052;-83
2022/06/17 00:19:05;;;;;;;0.93;0.45;;;;;;;11.70;69.00;100368.94;5018358;28;20034;-88
2022/06/17 00:21:34;;;;;;;0.65;0.52;;;;;;;11.70;69.27;100363.44;5032151;28;20132;-83
2022/06/17 00:24:00;;;;;;;0.50;0.50;;;;;;;11.89;69.07;100359.94;5031992;28;20083;-86
2022/06/17 00:26:27;;;;;;;0.52;0.52;;;;;;;11.90;69.28;100362.38;5013609;28;20034;-84
2022/06/17 00:28:52;;;;;;;0.77;0.60;;;;;;;11.83;69.21;100352.88;5013471;28;20496;-85
2022/06/17 00:31:19;;;;;;;0.63;0.52;;;;;;;11.90;68.61;100356.06;5013694;28;20067;-81
2022/06/17 00:33:45;;;;;;;1.00;0.43;;;;;;;11.83;68.08;100356.44;5027987;28;20037;-82
2022/06/17 00:36:17;;;;;;;0.50;0.50;;;;;;;11.87;67.93;100362.16;5031447;28;20040;-81
2022/06/17 00:38:44;;;;;;;1.25;0.57;;;;;;;11.85;68.05;100365.22;5033767;28;20033;-83
2022/06/17 00:41:24;;;;;;;0.55;0.55;;;;;;;11.95;68.58;100364.22;5051501;28;20064;-82
2022/06/17 00:43:50;;;;;;;0.43;0.43;;;;;;;11.98;68.46;100361.72;5031438;28;20034;-82
2022/06/17 00:46:33;;;;;;;0.38;0.38;;;;;;;12.03;68.29;100355.31;5023914;28;20045;-80
2022/06/17 00:49:10;;;;;;;3.38;0.55;;;;;;;12.31;68.02;100359.81;5013017;28;20041;-82
2022/06/17 00:51:44;;;;;;;0.75;0.55;;;;;;;12.35;67.37;100358.13;5011934;28;20041;-87
2022/06/17 00:54:41;;;;;;;0.40;0.40;;;;;;;12.44;67.51;100354.69;4999094;28;20033;-92
2022/06/17 00:57:25;;;;;;;0.43;0.43;;;;;;;12.37;66.89;100350.38;5015020;28;20562;-94
2022/06/17 01:00:04;;;;;;;0.50;0.50;;;;;;;12.31;67.73;100357.06;4999136;28;20112;-89
2022/06/17 01:02:34;;;;;;;0.70;0.50;;;;;;;12.32;67.51;100355.97;5031760;28;20041;-89
2022/06/17 01:05:02;;;;;;;0.65;0.65;;;;;;;12.30;67.77;100363.69;5013795;28;20044;-87
2022/06/17 01:07:47;;;;;;;0.52;0.52;;;;;;;12.38;67.33;100356.72;4999284;28;20072;-91
2022/06/17 01:10:15;;;;;;;0.40;0.40;;;;;;;12.65;66.84;100362.28;5012311;28;20087;-93
2022/06/17 01:13:00;;;;;;;2.65;0.57;;;;;;;12.68;66.88;100356.19;4980563;28;20049;-89
2022/06/17 01:15:29;;;;;;;1.65;0.50;;;;;;;12.62;66.46;100351.06;5021307;28;20096;-85
2022/06/17 01:17:57;;;;;;;2.28;0.60;;;;;;;12.53;66.16;100361.16;5008099;28;20038;-86
2022/06/17 01:20:26;;;;;;;0.65;0.65;;;;;;;12.42;65.93;100371.50;4994749;28;20056;-89
2022/06/17 01:22:55;;;;;;;0.50;0.30;;;;;;;12.42;65.61;100368.75;4995069;28;20046;-90
2022/06/17 01:25:47;;;;;;;0.65;0.50;;;;;;;12.26;66.22;100365.41;4997052;28;20053;-90
2022/06/17 01:28:17;;;;;;;0.40;0.40;;;;;;;12.13;66.50;100374.41;4994259;28;20046;-83
2022/06/17 01:30:46;;;;;;;0.60;0.60;;;;;;;12.08;67.08;100375.31;5024588;28;20037;-90
2022/06/17 01:33:14;;;;;;;0.77;0.40;;;;;;;12.08;67.01;100374.50;5032408;28;20628;-88
2022/06/17 01:36:00;;;;;;;0.82;0.60;;;;;;;12.04;67.64;100377.03;5027790;28;20030;-83
2022/06/17 01:38:28;;;;;;;0.38;0.38;;;;;;;11.95;66.81;100375.22;5011402;28;20460;-82
2022/06/17 01:40:55;;;;;;;0.65;0.60;;;;;;;11.92;66.98;100378.56;5030223;28;20138;-82
2022/06/17 01:43:24;;;;;;;0.50;0.47;;;;;;;11.87;66.75;100381.41;4988245;28;20084;-83
2022/06/17 01:45:56;;;;;;;0.75;0.50;;;;;;;11.85;67.25;100375.38;5004577;28;20042;-82
2022/06/17 01:48:26;;;;;;;0.95;0.50;;;;;;;11.90;67.18;100378.06;4994203;28;20045;-82
2022/06/17 01:50:51;;;;;;;;;;;;;;;11.87;66.89;100373.16;5010946;28;20042;-82
2022/06/17 01:53:21;;;;;;;0.60;0.47;;;;;;;11.83;67.26;100375.69;5011307;28;20414;-83
2022/06/17 01:55:50;;;;;;;0.30;0.30;;;;;;;11.92;66.95;100378.56;5009537;28;20043;-80
2022/06/17 01:58:27;;;;;;;0.60;0.60;;;;;;;12.05;66.59;100375.09;4996368;28;20140;-82
2022/06/17 02:00:53;;;;;;;0.40;0.40;;;;;;;12.08;66.36;100374.50;4993835;28;20413;-80
2022/06/17 02:03:32;;;;;;;0.85;0.60;;;;;;;12.11;66.78;100375.81;5014210;28;20064;-81
2022/06/17 02:06:11;;;;;;;0.47;0.47;;;;;;;12.31;67.08;100372.75;5029835;28;20042;-80
2022/06/17 02:08:38;;;;;;;0.50;0.50;;;;;;;12.41;66.73;100378.13;5013755;28;20045;-81
2022/06/17 02:11:05;;;;;;;0.40;0.40;;;;;;;12.31;66.17;100381.00;4993433;28;20559;-82
2022/06/17 02:13:34;;;;;;;1.45;0.38;;;;;;;12.19;66.39;100386.19;4994366;28;20058;-82
2022/06/17 02:16:20;;;;;;;0.40;0.40;;;;;;;12.26;66.60;100389.34;5008737;28;20052;-81
2022/06/17 02:19:14;;;;;;;1.60;0.35;;;;;;;12.22;66.62;100371.81;5002715;28;20049;-81
2022/06/17 02:21:45;;;;;;;0.60;0.30;;;;;;;12.12;66.89;100377.47;5003124;28;20045;-85
2022/06/17 02:24:11;;;;;;;0.30;0.30;;;;;;;12.01;66.47;100379.56;5014988;28;20044;-85
2022/06/17 02:26:37;;;;;;;0.45;0.45;;;;;;;11.98;67.27;100385.66;5011391;28;20045;-86
2022/06/17 02:29:07;;;;;;;2.20;0.50;;;;;;;11.91;67.71;100385.19;5041243;28;20041;-85
2022/06/17 02:31:33;;;;;;;0.55;0.47;;;;;;;11.82;67.41;100378.75;5013441;28;20080;-85
2022/06/17 02:33:59;;;;;;;0.50;0.50;;;;;;;11.90;67.28;100380.81;4996768;28;20038;-85
2022/06/17 02:36:30;;;;;;;0.40;0.40;;;;;;;11.84;68.04;100385.56;5010350;28;20042;-86
2022/06/17 02:38:56;;;;;;;0.40;0.40;;;;;;;11.80;67.89;100383.69;5015953;28;20043;-85
2022/06/17 02:41:21;;;;;;;0.82;0.40;;;;;;;11.90;67.91;100392.63;5000291;28;20125;-85
2022/06/17 02:43:54;;;;;;;0.50;0.50;;;;;;;11.93;68.08;100389.28;5001510;28;20045;-84
2022/06/17 02:46:29;;;;;;;0.30;0.30;;;;;;;11.95;68.06;100387.03;5034099;28;20051;-84
2022/06/17 02:48:59;;;;;;;0.73;0.47;;;;;;;11.93;67.72;100389.28;5008951;28;20049;-84
2022/06/17 02:51:29;;;;;;;0.40;0.40;;;;;;;11.92;67.73;100382.16;5032150;28;20608;-85
2022/06/17 02:53:56;;;;;;;0.40;0.38;;;;;;;11.86;68.15;100394.34;5017610;28;20048;-85
2022/06/17 02:56:28;;;;;;;0.32;0.32;;;;;;;11.85;67.99;100392.69;5016402;28;20179;-85
2022/06/17 02:59:03;;;;;;;0.30;0.30;;;;;;;11.85;68.69;100398.19;5012595;28;20561;-85
2022/06/17 03:01:34;;;;;;;1.95;0.50;;;;;;;12.07;68.66;100394.88;4997618;28;20076;-85
2022/06/17 03:04:26;;;;;;;0.30;0.30;;;;;;;12.14;68.06;100398.06;4999398;28;20045;-85
2022/06/17 03:06:52;;;;;;;0.47;0.47;;;;;;;12.23;68.17;100399.03;5020711;28;20048;-84
2022/06/17 03:09:25;;;;;;;0.77;0.50;;;;;;;12.18;67.56;100390.88;5027033;28;20544;-85
2022/06/17 03:12:03;;;;;;;0.40;0.40;;;;;;;12.17;68.32;100389.22;5032370;28;20041;-84
2022/06/17 03:14:41;;;;;;;0.50;0.50;;;;;;;12.54;68.77;100387.56;5032799;28;20458;-84
2022/06/17 03:17:12;;;;;;;0.60;0.60;;;;;;;12.62;68.43;100384.09;5014537;28;20037;-84
2022/06/17 03:19:39;;;;;;;0.77;0.60;;;;;;;12.59;68.97;100381.97;5009579;28;20065;-84
2022/06/17 03:22:05;;;;;;;0.65;0.63;;;;;;;12.59;68.39;100379.19;5003155;28;20455;-84
2022/06/17 03:24:43;;;;;;;0.63;0.40;;;;;;;12.56;69.25;100379.81;5021447;28;20041;-85
2022/06/17 03:27:14;;;;;;;0.77;0.73;;;;;;;12.63;69.74;100385.72;5013491;28;20461;-84
2022/06/17 03:29:42;;;;;;;0.57;0.57;;;;;;;12.39;70.41;100374.84;5013509;28;20042;-83
2022/06/17 03:32:15;;;;;;;0.40;0.40;;;;;;;12.22;70.36;100386.41;5030071;28;20054;-84
2022/06/17 03:34:45;;;;;;;0.32;0.32;;;;;;;12.19;71.50;100375.19;5006926;28;20297;-84
2022/06/17 03:37:20;;;;;;;0.80;0.50;;;;;;;12.11;72.47;100379.41;5013561;28;20048;-84
2022/06/17 03:39:50;;;;;;;0.50;0.50;;;;;;;12.13;72.11;100379.91;5027374;28;20037;-83
2022/06/17 03:42:24;;;;;;;0.50;0.50;;;;;;;12.09;72.39;100378.88;5007552;28;20075;-83
2022/06/17 03:45:01;;;;;;;0.40;0.40;;;;;;;12.05;73.36;100373.16;5023940;28;20045;-83
2022/06/17 03:47:31;;;;;;;0.50;0.50;;;;;;;12.16;73.16;100378.53;5015540;28;20076;-84
2022/06/17 03:49:58;;;;;;;2.15;0.60;;;;;;;12.07;72.68;100378.38;5022324;28;20036;-84
2022/06/17 03:52:37;;;;;;;0.82;0.40;;;;;;;12.20;73.24;100383.13;5004186;28;20052;-83
2022/06/17 03:55:15;;;;;;;0.50;0.50;;;;;;;12.21;73.04;100383.94;5015317;28;20095;-84
2022/06/17 03:58:01;;;;;;;0.50;0.50;;;;;;;12.07;73.38;100381.94;5036301;28;20132;-85
2022/06/17 04:00:58;;;;;;;1.70;0.50;;;;;;;12.12;73.48;100383.78;5020212;28;20045;-85
2022/06/17 04:03:25;;;;;;;0.63;0.47;;;;;;;12.03;72.92;100378.16;5053048;28;20120;-83
2022/06/17 04:05:54;;;;;;;;;;;;;;;11.91;73.57;100383.25;5010258;28;20061;-84
2022/06/17 04:08:20;;;;;;;1.70;0.80;;;;;;;11.95;73.76;100391.72;5032046;28;19916;-84
2022/06/17 04:10:46;;;;;;;0.52;0.50;;;;;;;11.97;73.74;100386.75;5021391;28;20075;-85
2022/06/17 04:13:16;;;;;;;0.57;0.40;;;;;;;11.90;73.86;100387.13;5051800;28;20040;-83
2022/06/17 04:16:14;;;;;;;1.35;0.60;;;;;;;11.88;73.71;100388.53;5003556;28;20504;-84
2022/06/17 04:18:40;;;;;;;0.47;0.47;;;;;;;11.90;73.90;100389.06;5045305;28;20454;-84
2022/06/17 04:21:07;;;;;;;0.60;0.60;;;;;;;11.98;74.38;100385.66;5025902;28;20044;-82
2022/06/17 04:23:35;;;;;;;0.40;0.40;;;;;;;12.07;73.76;100389.38;5052675;28;20412;-82
2022/06/17 04:26:27;;;;;;;0.63;0.55;;;;;;;12.09;74.11;100387.13;5036865;28;20037;-84
2022/06/17 04:29:01;;;;;;;0.52;0.50;;;;;;;12.05;73.93;100391.59;5003168;28;20041;-84
2022/06/17 04:31:36;;;;;;;0.57;0.47;;;;;;;12.06;73.99;100394.06;5016197;28;20043;-83
2022/06/17 04:34:11;;;;;;;0.65;0.65;;;;;;;12.11;73.97;100387.66;5033214;28;20033;-83
2022/06/17 04:36:48;;;;;;;3.08;0.82;;;;;;;12.16;73.93;100398.59;5013863;28;20445;-83
2022/06/17 04:39:32;;;;;;;1.67;0.82;;;;;;;12.21;74.15;100393.00;4978247;28;20799;-83
2022/06/17 04:42:18;;;;;;;0.90;0.82;;;;;;;12.30;73.47;100388.47;5006806;28;20049;-83
2022/06/17 04:44:45;;;;;;;0.70;0.70;;;;;;;12.37;72.98;100383.41;5028352;28;20134;-83
2022/06/17 04:47:14;;;;;;;1.30;0.88;;;;;;;12.54;73.24;100385.63;5028120;28;20042;-83
2022/06/17 04:49:53;;;;;;;1.00;0.60;;;;;;;12.70;72.12;100397.19;5022652;28;20523;-82
2022/06/17 04:52:26;;;;;;;2.28;0.70;;;;;;;12.72;71.89;100389.44;5013472;28;20047;-82
2022/06/17 04:54:57;;;;;;;0.60;0.60;;;;;;;12.79;71.09;100395.38;5016985;28;20511;-82
2022/06/17 04:57:51;;;;;;;0.68;0.57;;;;;;;13.07;69.88;100388.00;5002769;28;20057;-82
2022/06/17 05:00:21;;;;;;;0.50;0.50;;;;;;;13.50;69.51;100393.25;5029939;28;20041;-82
2022/06/17 05:02:49;;;;;;;0.52;0.50;;;;;;;13.87;68.54;100397.69;5013926;28;20069;-82
2022/06/17 05:05:40;;;;;;;1.27;0.70;;;;;;;14.03;67.00;100400.94;5016912;28;20135;-82
2022/06/17 05:08:18;;;;;;;0.70;0.70;;;;;;;14.07;66.43;100400.03;5030706;28;20490;-82
2022/06/17 05:10:49;;;;;;;0.97;0.73;;;;;;;14.09;66.10;100406.06;5032869;28;20044;-82
2022/06/17 05:13:23;;;;;;;1.58;0.68;;;;;;;14.08;66.24;100406.38;5029245;28;20128;-82
2022/06/17 05:15:50;;;;;;;0.55;0.55;;;;;;;14.17;65.34;100404.50;5036507;28;20037;-83
2022/06/17 05:18:17;;;;;;;0.50;0.50;;;;;;;14.24;64.95;100415.13;5006486;28;20068;-82
2022/06/17 05:20:44;;;;;;;0.77;0.50;;;;;;;14.57;64.20;100402.72;5019805;28;20041;-83
2022/06/17 05:23:12;;;;;;;0.82;0.60;;;;;;;14.78;63.67;100409.41;5022870;28;20037;-83
2022/06/17 05:25:41;;;;;;;0.75;0.40;;;;;;;14.72;63.90;100404.31;5015446;28;20080;-83
2022/06/17 05:28:14;;;;;;;0.75;0.50;;;;;;;14.66;63.55;100402.81;5014205;28;20065;-83
2022/06/17 05:30:44;;;;;;;2.00;0.43;;;;;;;14.61;63.66;100402.94;5007658;28;20503;-83
2022/06/17 05:33:13;;;;;;;1.23;0.80;;;;;;;14.55;63.83;100410.53;5003699;28;20115;-82
2022/06/17 05:35:39;;;;;;;0.50;0.50;;;;;;;14.51;63.47;100403.19;5020637;28;20033;-82
2022/06/17 05:38:05;;;;;;;0.75;0.68;;;;;;;14.39;63.91;100409.22;5033917;28;20074;-82
2022/06/17 05:40:33;;;;;;;0.50;0.50;;;;;;;14.23;63.90;100413.47;5016161;28;20129;-82
2022/06/17 05:43:03;;;;;;;0.50;0.50;;;;;;;14.19;64.10;100419.59;5006477;28;20038;-82
2022/06/17 05:45:29;;;;;;;0.40;0.40;;;;;;;14.13;64.13;100420.84;5024506;28;20038;-83
2022/06/17 05:48:14;;;;;;;0.68;0.50;;;;;;;14.06;64.20;100428.75;5029392;28;20041;-83
2022/06/17 05:51:03;;;;;;;0.52;0.50;;;;;;;13.89;64.40;100423.06;5033128;28;20041;-83
2022/06/17 05:53:28;;;;;;;0.90;0.57;;;;;;;13.74;64.50;100426.94;5045811;28;20098;-83
2022/06/17 05:56:03;;;;;;;0.82;0.52;;;;;;;13.76;64.74;100429.41;5028325;28;20040;-83
2022/06/17 05:58:28;;;;;;;0.57;0.52;;;;;;;13.79;64.80;100426.84;5006966;28;20144;-84
2022/06/17 06:00:55;;;;;;;0.70;0.43;;;;;;;13.76;64.49;100426.63;5002760;28;20760;-81
2022/06/17 06:03:24;;;;;;;1.65;0.60;;;;;;;13.65;64.90;100422.44;5049405;28;20128;-82
2022/06/17 06:05:51;;;;;;;0.55;0.50;;;;;;;13.59;64.80;100427.25;5020324;28;20042;-82
2022/06/17 06:08:20;;;;;;;0.93;0.50;;;;;;;13.58;65.59;100423.69;5016387;28;20412;-81
2022/06/17 06:10:47;;;;;;;0.55;0.45;;;;;;;13.57;64.44;100427.56;5018901;28;20041;-82
2022/06/17 06:13:16;;;;;;;1.00;0.50;;;;;;;13.64;65.22;100434.59;5029192;28;20044;-82
2022/06/17 06:15:46;;;;;;;0.77;0.60;;;;;;;13.58;65.06;100431.97;5003506;28;20041;-82
2022/06/17 06:18:35;;;;;;;0.75;0.65;;;;;;;13.57;65.52;100429.50;5030652;28;20045;-82
2022/06/17 06:21:06;;;;;;;0.85;0.85;;;;;;;13.48;64.58;100432.16;5022260;28;20500;-82
2022/06/17 06:23:36;;;;;;;0.50;0.47;;;;;;;13.36;65.39;100431.00;5032822;28;20044;-82
2022/06/17 06:26:02;;;;;;;0.43;0.43;;;;;;;13.29;65.41;100431.41;5016619;28;20045;-83
2022/06/17 06:28:29;;;;;;;0.63;0.50;;;;;;;13.26;65.29;100432.84;4999443;28;20033;-82
2022/06/17 06:31:27;;;;;;;0.60;0.60;;;;;;;13.31;66.08;100440.19;5001039;28;20041;-83
2022/06/17 06:33:54;;;;;;;0.80;0.60;;;;;;;13.41;65.95;100437.25;5009008;28;20049;-82
2022/06/17 06:36:22;;;;;;;0.50;0.50;;;;;;;13.54;65.54;100441.16;5015889;28;20071;-82
2022/06/17 06:38:48;;;;;;;0.98;0.60;;;;;;;13.71;65.29;100443.28;4998842;28;20041;-82
2022/06/17 06:41:14;;;;;;;0.60;0.60;;;;;;;13.76;64.24;100440.44;5041739;28;20044;-82
2022/06/17 06:43:40;;;;;;;0.75;0.60;;;;;;;13.77;64.45;100444.81;4996439;28;20033;-82
2022/06/17 06:46:32;;;;;;;1.38;0.70;;;;;;;13.83;63.44;100454.63;5035468;28;20037;-82
2022/06/17 06:48:57;;;;;;;1.10;0.77;;;;;;;13.84;63.17;100446.03;5041560;28;20098;-82
2022/06/17 06:51:23;;;;;;;0.60;0.60;;;;;;;13.81;63.33;100443.06;5049855;28;20036;-82
2022/06/17 06:53:51;;;;;;;0.57;0.55;;;;;;;13.92;63.15;100451.97;5030638;28;20041;-82
2022/06/17 06:56:17;;;;;;;0.75;0.57;;;;;;;13.93;62.78;100448.09;5031908;28;20041;-82
2022/06/17 06:58:43;;;;;;;0.57;0.57;;;;;;;13.75;63.42;100447.88;5004034;28;20061;-82
2022/06/17 07:01:08;;;;;;;0.77;0.77;;;;;;;13.61;63.62;100447.06;5050158;28;20105;-82
2022/06/17 07:03:34;;;;;;;0.60;0.60;;;;;;;13.54;63.56;100449.44;5038250;28;20052;-82
2022/06/17 07:06:03;;;;;;;1.80;0.60;;;;;;;13.51;64.05;100455.53;5018286;28;20056;-82
2022/06/17 07:08:32;;;;;;;0.55;0.55;;;;;;;13.55;63.95;100448.31;5032075;28;20045;-82
2022/06/17 07:10:59;;;;;;;0.50;0.50;;;;;;;13.51;64.44;100450.81;5029993;28;20048;-82
2022/06/17 07:13:30;;;;;;;0.50;0.50;;;;;;;13.45;63.77;100448.47;5045909;28;20052;-83
2022/06/17 07:15:56;;;;;;;0.90;0.75;;;;;;;13.51;64.63;100452.75;5011025;28;20160;-83
2022/06/17 07:18:25;;;;;;;0.50;0.50;;;;;;;13.57;64.11;100452.38;4999928;28;20492;-82
2022/06/17 07:20:54;;;;;;;0.60;0.60;;;;;;;13.62;64.54;100447.88;5047010;28;20040;-82
2022/06/17 07:23:25;;;;;;;0.85;0.55;;;;;;;13.67;63.87;100456.03;5043060;28;20040;-82
2022/06/17 07:25:51;;;;;;;0.70;0.60;;;;;;;13.74;63.66;100459.22;5031881;28;20033;-82
2022/06/17 07:28:20;;;;;;;1.08;0.57;;;;;;;13.71;63.90;100477.22;5043031;28;20408;-82
2022/06/17 07:30:48;;;;;;;1.30;0.63;;;;;;;13.72;63.47;100472.50;5029231;28;20415;-82
2022/06/17 07:33:15;;;;;;;0.90;0.65;;;;;;;13.82;63.33;100477.81;5042770;28;20048;-82
2022/06/17 07:35:42;;;;;;;1.13;0.80;;;;;;;13.93;63.83;100484.75;5000077;28;20045;-82
2022/06/17 07:41:05;;;;;;;0.60;0.60;;;;;;;14.19;62.53;100474.81;5037796;28;20033;-82
2022/06/17 07:43:31;;;;;;;0.75;0.60;;;;;;;14.31;62.40;100473.47;5036032;28;20076;-82
2022/06/17 07:45:57;;;;;;;1.23;0.50;;;;;;;14.37;61.46;100473.03;5036852;28;20582;-82
2022/06/17 07:48:23;;;;;;;0.55;0.55;;;;;;;14.50;61.04;100481.63;5051891;28;20037;-82
2022/06/17 07:50:48;;;;;;;0.75;0.68;;;;;;;14.51;59.59;100481.31;5036281;28;20041;-82
2022/06/17 07:53:15;;;;;;;0.57;0.57;;;;;;;14.48;60.10;100476.41;5036455;28;20041;-82
2022/06/17 07:55:42;;;;;;;3.15;0.60;;;;;;;14.51;59.73;100488.78;5035328;28;20033;-83
2022/06/17 07:58:10;;;;;;;1.65;0.63;;;;;;;14.54;59.73;100488.16;5042471;28;20141;-81
2022/06/17 08:00:38;;;;;;;1.90;0.70;;;;;;;14.58;59.77;100484.47;5030556;28;20041;-81
2022/06/17 08:03:05;;;;;;;0.65;0.52;;;;;;;14.66;59.88;100489.25;5016020;28;20044;-81
2022/06/17 08:05:31;;;;;;;0.63;0.63;;;;;;;14.80;59.73;100485.63;5047137;28;20037;-82
2022/06/17 08:07:58;;;;;;;2.55;0.80;;;;;;;14.89;59.59;100490.06;5035694;28;20040;-82
2022/06/17 08:10:28;;;;;;;1.38;1.00;;;;;;;14.90;59.65;100485.34;5045415;28;20037;-82
2022/06/17 08:12:54;;;;;;;0.88;0.88;;;;;;;14.84;59.15;100489.38;5052304;28;20072;-82
2022/06/17 08:15:20;;;;;;;1.20;0.80;;;;;;;14.74;59.28;100493.19;5047847;28;20124;-82
2022/06/17 08:17:47;;;;;;;2.38;0.73;;;;;;;14.54;60.12;100494.50;5041557;28;20480;-82
2022/06/17 08:20:19;;;;;;;1.42;0.93;;;;;;;14.45;60.61;100496.38;5011604;28;20068;-82
2022/06/17 08:22:45;;;;;;;0.70;0.70;;;;;;;14.32;60.65;100497.19;5034646;28;20488;-82
2022/06/17 08:25:11;;;;;;;1.35;0.90;;;;;;;14.19;61.03;100504.34;5052018;28;20037;-82
2022/06/17 08:27:42;;;;;;;0.90;0.60;;;;;;;14.13;62.00;100506.41;5014661;28;20850;-82
2022/06/17 08:30:08;;;;;;;0.60;0.57;;;;;;;14.04;61.95;100513.75;5044731;28;20056;-82
2022/06/17 08:32:46;;;;;;;0.63;0.63;;;;;;;13.96;62.21;100500.69;5025847;28;20491;-82
2022/06/17 08:35:18;;;;;;;0.90;0.80;;;;;;;13.94;62.40;100516.72;5015141;28;20731;-83
2022/06/17 08:37:45;;;;;;;0.68;0.63;;;;;;;13.89;62.95;100516.84;5044735;28;20037;-81
2022/06/17 08:40:52;;;;;;;1.05;0.70;;;;;;;13.92;62.77;100516.22;5009208;28;20037;-81
2022/06/17 08:43:36;;;;;;;0.90;0.70;;;;;;;13.95;63.59;100512.84;4983678;28;20042;-81
2022/06/17 08:46:21;;;;;;;1.23;0.70;;;;;;;13.99;63.50;100510.28;5017890;28;20094;-81
2022/06/17 08:49:25;;;;;;;0.75;0.75;;;;;;;14.07;63.84;100515.91;5047941;28;20557;-81
2022/06/17 08:52:45;;;;;;;0.80;0.60;;;;;;;14.22;62.99;100522.22;5048178;28;20040;-81
2022/06/17 08:55:23;;;;;;;1.20;0.80;;;;;;;14.24;63.42;100528.28;4990859;28;20041;-81
2022/06/17 08:58:15;;;;;;;2.13;1.00;;;;;;;14.31;63.66;100518.44;5021990;28;20033;-82
2022/06/17 09:01:09;;;;;;;0.98;0.85;;;;;;;14.51;62.94;100519.16;5042142;28;20056;-81
2022/06/17 09:04:19;;;;;;;0.85;0.73;;;;;;;14.66;62.61;100536.19;5036169;28;20479;-78
2022/06/17 09:06:59;;;;;;;0.88;0.77;;;;;;;14.76;62.65;100522.16;4954775;28;20042;-80
2022/06/17 09:09:57;;;;;;;0.95;0.70;;;;;;;14.69;62.19;100527.28;4981894;28;20034;-77
2022/06/17 09:12:48;;;;;;;2.50;1.02;;;;;;;14.58;62.24;100539.72;5008972;28;20080;-77
2022/06/17 09:15:35;;;;;;;1.50;0.82;;;;;;;14.52;62.44;100537.34;5050381;28;20067;-77
2022/06/17 09:18:30;;;;;;;0.90;0.70;;;;;;;14.52;62.08;100545.63;5048864;28;20041;-78
2022/06/17 09:21:02;;;;;;;0.73;0.70;;;;;;;14.52;62.16;100546.44;5022056;28;20045;-79
2022/06/17 09:23:30;;;;;;;0.80;0.80;;;;;;;14.56;61.81;100546.63;5047187;28;20644;-79
2022/06/17 09:25:57;;;;;;;0.98;0.90;;;;;;;14.51;62.20;100541.25;5033735;28;20104;-79
2022/06/17 09:28:31;;;;;;;1.48;0.90;;;;;;;14.48;62.37;100539.91;5051531;28;20072;-80
2022/06/17 09:31:12;;;;;;;1.00;0.90;;;;;;;14.59;61.86;100540.53;5016318;28;20503;-79
2022/06/17 09:33:44;;;;;;;0.70;0.70;;;;;;;14.71;62.17;100538.84;5040760;28;20041;-78
2022/06/17 09:36:09;;;;;;;1.90;0.80;;;;;;;14.72;61.54;100546.00;5044607;28;20574;-78
2022/06/17 09:38:43;;;;;;;2.53;0.82;;;;;;;14.76;61.48;100538.72;5065267;28;20171;-77
2022/06/17 09:41:15;;;;;;;1.00;0.88;;;;;;;14.79;62.14;100545.56;5046833;28;20506;-78
2022/06/17 09:43:50;;;;;;;0.75;0.70;;;;;;;14.79;62.02;100556.63;5033229;28;20047;-78
2022/06/17 09:46:22;;;;;;;1.45;1.02;;;;;;;14.71;62.03;100554.59;5047099;28;20040;-78
2022/06/17 09:48:53;;;;;;;1.08;0.88;;;;;;;14.60;62.59;100554.03;5063119;28;20089;-78
2022/06/17 09:51:24;;;;;;;2.00;1.10;;;;;;;14.57;62.70;100562.91;5055704;28;20036;-78
2022/06/17 09:54:07;;;;;;;2.05;1.10;;;;;;;14.50;62.59;100564.47;5033761;28;20049;-78
2022/06/17 09:56:39;;;;;;;1.77;1.30;;;;;;;14.41;62.43;100567.94;5033925;28;20124;-79
2022/06/17 09:59:17;;;;;;;1.60;1.20;;;;;;;14.31;62.41;100561.78;5031568;28;20087;-78
2022/06/17 10:01:43;;;;;;;2.05;1.13;;;;;;;14.19;63.26;100570.56;5007100;28;20041;-79
2022/06/17 10:04:11;;;;;;;1.17;1.08;;;;;;;14.10;63.77;100573.25;5017280;28;20057;-78
2022/06/17 10:07:01;;;;;;;2.30;1.17;;;;;;;14.14;63.59;100568.75;5051035;28;20055;-78
2022/06/17 10:09:47;;;;;;;1.50;1.40;;;;;;;14.08;64.07;100574.69;5045877;28;20048;-79
2022/06/17 10:12:19;;;;;;;1.00;0.90;;;;;;;14.02;64.70;100568.44;5013100;28;20144;-78
2022/06/17 10:15:10;;;;;;;1.73;1.20;;;;;;;14.03;64.47;100574.75;5044040;28;20033;-78
2022/06/17 10:21:10;;;;;;;1.00;0.90;;;;;;;14.19;64.53;100581.63;5040507;28;20068;-79
2022/06/17 10:24:03;;;;;;;1.08;0.90;;;;;;;14.14;65.59;100596.34;5021306;28;20420;-78
2022/06/17 10:26:36;;;;;;;0.70;0.70;;;;;;;13.98;66.23;100586.72;5036655;28;20049;-78
2022/06/17 10:29:13;;;;;;;0.98;0.88;;;;;;;13.70;66.60;100601.56;5029817;28;20041;-78
2022/06/17 10:31:44;;;;;;;1.30;0.95;;;;;;;13.56;67.06;100602.38;5008046;28;20041;-78
2022/06/17 10:34:24;;;;;;;1.00;0.80;;;;;;;13.44;68.15;100606.72;5028535;28;20041;-78
2022/06/17 10:36:54;;;;;;;1.60;1.25;;;;;;;13.40;68.23;100614.78;5046384;28;20045;-78
2022/06/17 10:39:22;;;;;;;0.77;0.77;;;;;;;13.49;68.50;100607.44;5035872;28;20037;-78
2022/06/17 10:41:48;;;;;;;0.90;0.90;;;;;;;13.57;68.89;100601.25;5043014;28;20037;-79
2022/06/17 10:44:16;;;;;;;1.17;1.00;;;;;;;13.63;68.84;100610.25;5018760;28;20041;-81
2022/06/17 10:46:45;;;;;;;2.08;1.17;;;;;;;13.61;69.50;100619.94;5022850;28;20045;-79
2022/06/17 10:49:21;;;;;;;1.02;0.93;;;;;;;13.54;69.94;100614.84;5005078;28;20425;-78
2022/06/17 10:51:49;;;;;;;1.55;1.05;;;;;;;13.56;70.01;100618.09;5015253;28;20049;-78
2022/06/17 10:54:32;;;;;;;1.17;1.02;;;;;;;13.61;69.58;100617.19;5024418;28;20525;-78
2022/06/17 10:57:12;;;;;;;6.07;1.30;;;;;;;13.69;69.67;100622.00;5010969;28;20065;-78
2022/06/17 10:59:43;;;;;;;1.17;1.00;;;;;;;13.85;69.52;100620.59;5031003;28;20045;-78
2022/06/17 11:02:30;;;;;;;1.20;1.00;;;;;;;13.88;68.40;100614.47;5018542;28;20044;-78
2022/06/17 11:05:06;;;;;;;1.75;1.05;;;;;;;13.91;68.31;100616.66;5049784;28;20047;-78
2022/06/17 11:07:39;;;;;;;1.98;1.10;;;;;;;13.93;68.28;100619.94;5044763;28;20072;-79
2022/06/17 11:10:14;;;;;;;1.15;0.90;;;;;;;14.01;67.88;100627.50;5003073;28;20044;-79
2022/06/17 11:12:56;;;;;;;1.70;1.30;;;;;;;14.02;68.08;100620.84;5054529;28;20056;-78
2022/06/17 11:15:27;;;;;;;2.30;1.50;;;;;;;14.00;68.37;100627.78;5054093;28;20492;-78
2022/06/17 11:18:09;;;;;;;1.13;0.98;;;;;;;13.98;68.20;100630.88;5054321;28;20071;-78
2022/06/17 11:20:36;;;;;;;1.35;1.20;;;;;;;13.92;67.52;100625.75;5020183;28;20178;-75
2022/06/17 11:23:07;;;;;;;1.83;0.85;;;;;;;13.84;67.64;100630.00;5036100;28;20131;-75
2022/06/17 11:25:34;;;;;;;1.35;1.02;;;;;;;13.76;68.14;100626.03;5036472;28;20044;-75
2022/06/17 11:28:14;;;;;;;2.42;1.23;;;;;;;13.79;68.45;100622.66;5036097;28;20040;-76
2022/06/17 11:30:58;;;;;;;1.08;1.00;;;;;;;13.86;68.13;100619.50;5036082;28;20041;-77
2022/06/17 11:33:28;;;;;;;2.42;1.17;;;;;;;13.85;67.98;100615.91;5036134;28;20037;-76
2022/06/17 11:36:28;;;;;;;1.20;1.10;;;;;;;13.87;67.90;100624.69;5035902;28;20060;-76
2022/06/17 11:38:55;;;;;;;1.75;1.40;;;;;;;13.81;68.07;100636.13;5053691;28;20507;-77
2022/06/17 11:41:28;;;;;;;2.80;1.27;;;;;;;13.69;68.13;100644.88;5053972;28;20037;-77
2022/06/17 11:43:56;;;;;;;4.93;1.40;;;;;;;13.61;68.55;100642.81;5031821;28;20107;-77
2022/06/17 11:46:24;;;;;;;2.83;1.67;;;;;;;13.60;69.29;100641.19;5034680;28;20041;-78
2022/06/17 11:48:58;;;;;;;3.03;1.88;;;;;;;13.58;69.06;100644.25;5015917;28;20401;-79
2022/06/17 11:51:34;;;;;;;2.72;1.50;;;;;;;13.62;69.28;100646.41;5015956;28;20041;-80
2022/06/17 11:54:21;;;;;;;1.10;1.00;;;;;;;13.72;68.97;100643.47;4999503;28;20076;-81
2022/06/17 11:56:47;;;;;;;1.98;0.98;;;;;;;13.85;68.57;100639.91;5015814;28;20045;-79
2022/06/17 11:59:18;;;;;;;0.63;0.60;;;;;;;13.91;68.79;100648.94;5027228;28;20045;-82
2022/06/17 12:02:03;;;;;;;1.00;0.70;;;;;;;14.13;68.19;100636.09;5026587;28;20033;-80